Time;durP1;ratioP1;P1;durP2;ratioP2;P2;SDS_P1;SDS_P2;PMS_P1;PMS_P2;Temp;Humidity;BMP_temperature;BMP_pressure;BME280_temperature;BME280_humidity;BME280_pressure;Samples;Min_cycle;Max_cycle;Signal;HPM_P1;HPM_P2
2022/08/14 00:00:33;;;;;;;23.23;14.57;;;;;;;-144.47;58.30;53169.91;5095078;28;20417;-71
2022/08/14 00:02:59;;;;;;;28.02;14.50;;;;;;;-144.47;58.30;53197.72;5093528;28;20020;-71
2022/08/14 00:05:24;;;;;;;36.13;17.38;;;;;;;-144.47;58.46;53189.78;5090294;28;20012;-71
2022/08/14 00:07:49;;;;;;;29.75;15.80;;;;;;;-144.47;58.32;53193.75;5089544;28;20112;-72
2022/08/14 00:10:19;;;;;;;25.02;15.25;;;;;;;-144.47;58.50;53169.91;5084520;28;20024;-68
2022/08/14 00:12:54;;;;;;;24.83;14.10;;;;;;;-144.47;58.62;53209.66;5068416;28;20118;-69
2022/08/14 00:15:27;;;;;;;39.70;15.55;;;;;;;-144.47;58.88;53185.81;5079140;28;20051;-68
2022/08/14 00:17:53;;;;;;;27.42;14.93;;;;;;;-144.47;59.03;53175.88;5089814;28;20016;-68
2022/08/14 00:20:22;;;;;;;24.48;15.00;;;;;;;-144.47;59.21;53185.81;5089928;28;20591;-70
2022/08/14 00:22:47;;;;;;;28.98;15.30;;;;;;;-144.47;59.31;53201.69;5099052;22;20031;-66
2022/08/14 00:25:13;;;;;;;29.73;17.10;;;;;;;-144.47;59.46;53189.78;5046384;28;20087;-67
2022/08/14 00:27:38;;;;;;;32.72;16.08;;;;;;;-144.47;59.33;53217.59;5047755;28;20033;-66
2022/08/14 00:30:10;;;;;;;28.98;17.58;;;;;;;-144.47;59.48;53171.91;5048954;28;20039;-68
2022/08/14 00:32:36;;;;;;;29.10;16.50;;;;;;;-144.47;59.55;53173.88;5050773;28;20099;-64
2022/08/14 00:35:04;;;;;;;30.67;15.77;;;;;;;-144.47;59.60;53193.75;5051972;28;20099;-65
2022/08/14 00:37:30;;;;;;;;;;;;;;;-144.47;59.70;53203.69;5035479;28;20421;-67
2022/08/14 00:39:55;;;;;;;32.83;16.05;;;;;;;-144.47;59.81;53189.78;5025675;28;19927;-65
2022/08/14 00:42:22;;;;;;;29.50;15.90;;;;;;;-144.47;59.78;53165.94;5069735;28;20024;-67
2022/08/14 00:44:48;;;;;;;43.72;16.60;;;;;;;-144.47;59.51;53201.69;5051408;28;20070;-65
2022/08/14 00:47:15;;;;;;;30.63;16.52;;;;;;;-144.47;59.52;53181.84;5044424;28;20029;-66
2022/08/14 00:49:41;;;;;;;26.60;16.58;;;;;;;-144.47;59.58;53221.56;5052935;28;20043;-67
2022/08/14 00:52:08;;;;;;;30.15;16.33;;;;;;;-144.47;59.66;53199.72;5051534;28;20168;-66
2022/08/14 00:54:36;;;;;;;27.50;16.30;;;;;;;-144.47;59.89;53195.75;5051086;28;20047;-66
2022/08/14 00:57:02;;;;;;;29.90;17.08;;;;;;;-144.47;59.90;53217.59;5071423;28;20107;-66
2022/08/14 00:59:27;;;;;;;26.67;15.65;;;;;;;-144.47;60.01;53165.94;5070673;28;20021;-68
2022/08/14 01:01:56;;;;;;;26.60;15.82;;;;;;;-144.47;60.13;53183.81;5070257;28;20057;-63
2022/08/14 01:04:23;;;;;;;26.30;15.80;;;;;;;-144.47;60.22;53203.69;5070175;28;20034;-63
2022/08/14 01:06:50;;;;;;;30.90;15.45;;;;;;;-144.47;60.34;53201.69;5051127;28;20028;-67
2022/08/14 01:09:21;;;;;;;26.40;15.18;;;;;;;-144.47;60.38;53181.84;5052270;28;20552;-66
2022/08/14 01:11:48;;;;;;;24.77;14.90;;;;;;;-144.47;60.64;53199.72;5070161;28;20035;-66
2022/08/14 01:14:14;;;;;;;26.13;16.60;;;;;;;-144.47;60.99;53185.81;5070474;28;20033;-65
2022/08/14 01:16:39;;;;;;;27.83;15.32;;;;;;;-144.47;61.00;53201.69;5031947;28;20066;-66
2022/08/14 01:21:49;;;;;;;34.60;19.65;;;;;;;-144.47;61.21;53227.53;5070230;28;20443;-65
2022/08/14 01:24:14;;;;;;;29.83;17.27;;;;;;;-144.47;61.33;53201.69;5035888;28;20040;-63
2022/08/14 01:26:41;;;;;;;29.50;16.85;;;;;;;-144.47;61.35;53199.72;5052158;28;20549;-65
2022/08/14 01:29:08;;;;;;;25.60;15.68;;;;;;;-144.47;61.59;53215.59;5052820;28;20032;-65
2022/08/14 01:31:46;;;;;;;24.92;16.48;;;;;;;-144.47;61.81;53205.66;5070047;28;20128;-64
2022/08/14 01:34:12;;;;;;;29.83;17.92;;;;;;;-144.47;61.98;53195.75;5056989;28;20482;-66
2022/08/14 01:36:37;;;;;;;33.20;17.02;;;;;;;-144.47;61.87;53233.47;5031507;28;20037;-63
2022/08/14 01:39:14;;;;;;;33.75;17.83;;;;;;;-144.47;62.05;53229.50;5060741;28;20024;-66
2022/08/14 01:41:42;;;;;;;28.73;17.00;;;;;;;-144.47;62.19;53207.66;5039668;28;20104;-67
2022/08/14 01:44:14;;;;;;;25.48;16.63;;;;;;;-144.47;62.31;53205.66;5051763;28;20374;-69
2022/08/14 01:46:43;;;;;;;28.75;16.88;;;;;;;-144.47;62.38;53199.72;5052622;28;20021;-64
2022/08/14 01:49:10;;;;;;;;;;;;;;;-144.47;62.51;53243.41;5070111;28;20112;-64
2022/08/14 01:51:38;;;;;;;30.40;17.42;;;;;;;-144.47;62.83;53227.53;5070000;28;20297;-66
2022/08/14 01:54:11;;;;;;;28.92;15.30;;;;;;;-144.47;62.78;53197.72;5052090;28;20025;-65
2022/08/14 01:56:41;;;;;;;27.10;15.90;;;;;;;-144.47;62.81;53223.56;5069148;28;20028;-64
2022/08/14 01:59:32;;;;;;;30.83;16.88;;;;;;;-144.47;63.07;53189.78;5069344;28;20040;-68
2022/08/14 02:02:08;;;;;;;24.15;15.60;;;;;;;-144.47;63.08;53213.63;5069397;28;20371;-66
2022/08/14 02:04:34;;;;;;;27.40;16.50;;;;;;;-144.47;63.18;53219.56;5052711;28;20027;-66
2022/08/14 02:07:02;;;;;;;29.15;15.75;;;;;;;-144.47;63.23;53189.78;5018297;28;20032;-66
2022/08/14 02:09:30;;;;;;;25.30;15.75;;;;;;;-144.47;63.12;53191.78;5069431;28;20028;-65
2022/08/14 02:11:55;;;;;;;26.80;17.30;;;;;;;-144.47;63.05;53193.75;5035191;28;20028;-67
2022/08/14 02:14:22;;;;;;;26.77;15.10;;;;;;;-144.47;63.01;53205.66;5051216;28;20450;-65
2022/08/14 02:16:52;;;;;;;28.10;15.55;;;;;;;-144.47;62.98;53207.66;5050659;28;20532;-66
2022/08/14 02:19:24;;;;;;;24.30;15.45;;;;;;;-144.47;63.05;53245.41;5063158;28;20391;-68
2022/08/14 02:21:53;;;;;;;25.42;16.13;;;;;;;-144.47;63.50;53219.56;5035144;28;20021;-65
2022/08/14 02:24:22;;;;;;;26.88;15.38;;;;;;;-144.47;63.34;53223.56;5046449;28;20032;-65
2022/08/14 02:26:48;;;;;;;22.52;15.38;;;;;;;-144.47;62.99;53201.69;5054925;28;20038;-64
2022/08/14 02:29:16;;;;;;;25.70;15.25;;;;;;;-144.47;63.05;53229.50;5055114;28;20075;-66
2022/08/14 02:31:45;;;;;;;34.10;16.85;;;;;;;-144.47;63.10;53195.75;5073069;28;20540;-65
2022/08/14 02:34:11;;;;;;;;;;;;;;;-144.47;63.30;53233.47;5072901;28;20043;-65
2022/08/14 02:36:37;;;;;;;24.50;14.75;;;;;;;-144.47;63.32;53201.69;5072106;28;19908;-66
2022/08/14 02:39:04;;;;;;;23.77;15.52;;;;;;;-144.47;63.25;53201.69;5034704;28;20032;-64
2022/08/14 02:41:31;;;;;;;25.20;15.80;;;;;;;-144.47;63.55;53235.47;5073018;28;20031;-65
2022/08/14 02:43:57;;;;;;;28.25;16.13;;;;;;;-144.47;63.60;53223.56;5072362;28;20090;-66
2022/08/14 02:46:22;;;;;;;29.13;16.27;;;;;;;-144.47;63.63;53223.56;5041448;28;20450;-64
2022/08/14 02:48:47;;;;;;;25.05;16.05;;;;;;;-144.47;63.87;53199.72;5092800;28;20028;-66
2022/08/14 02:51:13;;;;;;;33.33;17.85;;;;;;;-144.47;64.00;53237.44;5074857;28;20453;-68
2022/08/14 02:53:43;;;;;;;36.50;16.73;;;;;;;-144.47;64.04;53169.91;5074795;28;20035;-69
2022/08/14 02:56:13;;;;;;;38.92;16.85;;;;;;;-144.47;64.27;53247.38;5074879;28;20023;-64
2022/08/14 02:58:42;;;;;;;30.02;16.88;;;;;;;-144.47;64.45;53213.63;5074940;28;20243;-64
2022/08/14 03:01:08;;;;;;;25.75;16.30;;;;;;;-144.47;64.55;53247.38;5076078;28;20574;-67
2022/08/14 03:03:35;;;;;;;25.02;15.82;;;;;;;-144.47;64.49;53233.47;5093087;28;20044;-65
2022/08/14 03:06:05;;;;;;;28.52;17.02;;;;;;;-144.47;64.54;53195.75;5093391;28;20113;-66
2022/08/14 03:08:32;;;;;;;28.73;17.63;;;;;;;-144.47;64.74;53221.56;5058026;28;20159;-64
2022/08/14 03:11:05;;;;;;;27.85;17.50;;;;;;;-144.47;64.77;53215.59;5077056;28;20422;-65
2022/08/14 03:13:34;;;;;;;24.98;15.77;;;;;;;-144.47;64.90;53229.50;5055050;28;20105;-63
2022/08/14 03:16:01;;;;;;;24.25;16.58;;;;;;;-144.47;65.04;53213.63;5054933;28;20027;-65
2022/08/14 03:18:27;;;;;;;24.38;15.50;;;;;;;-144.47;64.92;53219.56;5072546;28;20025;-67
2022/08/14 03:20:53;;;;;;;22.02;15.63;;;;;;;-144.47;64.99;53241.44;5072993;28;20393;-64
2022/08/14 03:23:19;;;;;;;27.85;15.40;;;;;;;-144.47;64.88;53261.28;5034581;28;20055;-66
2022/08/14 03:25:45;;;;;;;23.42;15.63;;;;;;;-144.47;64.79;53215.59;5044810;28;20020;-67
2022/08/14 03:28:11;;;;;;;25.55;16.02;;;;;;;-144.47;64.40;53237.44;5072536;28;20025;-64
2022/08/14 03:30:37;;;;;;;26.05;15.57;;;;;;;-144.47;64.18;53243.41;5071634;28;20029;-66
2022/08/14 03:33:03;;;;;;;25.95;14.80;;;;;;;-144.47;64.38;53251.34;5072246;28;20093;-68
2022/08/14 03:35:29;;;;;;;26.90;15.27;;;;;;;-144.47;64.43;53237.44;5072320;28;20025;-67
2022/08/14 03:38:04;;;;;;;24.80;16.00;;;;;;;-144.47;64.52;53243.41;5071636;28;20490;-66
2022/08/14 03:40:29;;;;;;;23.50;15.25;;;;;;;-144.47;64.93;53221.56;5052768;28;20059;-67
2022/08/14 03:42:54;;;;;;;28.38;15.48;;;;;;;-144.47;64.90;53261.28;5069984;28;20494;-63
2022/08/14 03:45:20;;;;;;;23.80;15.35;;;;;;;-144.47;65.11;53237.44;5053953;28;20099;-66
2022/08/14 03:47:45;;;;;;;20.38;14.95;;;;;;;-144.47;65.16;53225.53;5071684;28;20070;-67
2022/08/14 03:50:12;;;;;;;23.50;15.23;;;;;;;-144.47;65.00;53225.53;5054401;28;20028;-62
2022/08/14 03:52:39;;;;;;;25.25;15.50;;;;;;;-144.47;64.75;53217.59;5054006;28;20433;-66
2022/08/14 03:55:10;;;;;;;20.00;14.27;;;;;;;-144.47;64.91;53229.50;5072145;28;20099;-67
2022/08/14 03:57:36;;;;;;;23.63;14.93;;;;;;;-144.47;64.78;53263.28;5054028;28;20494;-69
2022/08/14 04:00:09;;;;;;;26.63;15.02;;;;;;;-144.47;64.88;53213.63;5053897;28;20031;-67
2022/08/14 04:02:36;;;;;;;24.35;14.73;;;;;;;-144.47;64.84;53207.66;5054441;28;20482;-64
2022/08/14 04:05:03;;;;;;;20.10;13.40;;;;;;;-144.47;64.65;53243.41;5054309;28;20031;-64
2022/08/14 04:07:28;;;;;;;22.63;14.15;;;;;;;-144.47;64.72;53223.56;5053502;28;20512;-65
2022/08/14 04:09:54;;;;;;;21.98;13.93;;;;;;;-144.47;64.84;53225.53;5053675;28;20538;-68
2022/08/14 04:12:20;;;;;;;24.85;14.57;;;;;;;-144.47;64.92;53193.75;5071981;28;20016;-66
2022/08/14 04:14:45;;;;;;;23.10;13.57;;;;;;;-144.47;64.75;53229.50;5053236;28;20031;-65
2022/08/14 04:17:11;;;;;;;18.50;13.48;;;;;;;-144.47;64.55;53209.66;5033948;28;20032;-67
2022/08/14 04:19:38;;;;;;;22.45;13.30;;;;;;;-144.47;64.42;53239.44;5063160;28;20107;-67
2022/08/14 04:22:05;;;;;;;21.13;14.18;;;;;;;-144.47;64.18;53233.47;5036427;28;20047;-67
2022/08/14 04:24:33;;;;;;;25.38;14.40;;;;;;;-144.47;64.39;53241.44;5071313;28;20081;-66
2022/08/14 04:26:58;;;;;;;23.83;15.13;;;;;;;-144.47;64.20;53285.13;5053450;28;20442;-65
2022/08/14 04:29:24;;;;;;;24.95;14.52;;;;;;;-144.47;64.23;53245.41;5053028;28;20489;-66
2022/08/14 04:31:49;;;;;;;19.30;13.55;;;;;;;-144.47;64.11;53225.53;5070656;28;20020;-65
2022/08/14 04:34:15;;;;;;;23.08;14.55;;;;;;;-144.47;64.13;53249.38;5052308;28;20386;-65
2022/08/14 04:44:54;;;;;;;22.77;12.82;;;;;;;-144.47;64.23;53257.31;5058338;28;20032;-69
2022/08/14 04:50:05;;;;;;;20.35;13.63;;;;;;;-144.47;64.22;53213.63;5070246;28;20055;-67
2022/08/14 04:52:30;;;;;;;20.63;13.13;;;;;;;-144.47;64.05;53203.69;5069629;28;20031;-67
2022/08/14 04:54:56;;;;;;;22.67;14.18;;;;;;;-144.47;63.91;53223.56;5031846;28;20021;-68
2022/08/14 04:57:22;;;;;;;20.70;13.52;;;;;;;-144.47;63.88;53219.56;5066882;28;20043;-65
2022/08/14 04:59:47;;;;;;;24.45;14.80;;;;;;;-144.47;63.87;53233.47;5052073;28;20099;-67
2022/08/14 05:02:15;;;;;;;21.60;14.27;;;;;;;-144.47;63.78;53233.47;5070098;28;20028;-66
2022/08/14 05:04:40;;;;;;;21.05;13.27;;;;;;;-144.47;63.88;53259.31;5052261;28;20428;-66
2022/08/14 05:07:06;;;;;;;21.20;13.07;;;;;;;-144.47;63.71;53211.63;5035192;28;20025;-68
2022/08/14 05:09:31;;;;;;;22.15;13.45;;;;;;;-144.47;64.02;53235.47;5069990;28;20027;-67
2022/08/14 05:11:57;;;;;;;20.13;13.02;;;;;;;-144.47;63.74;53269.22;5051777;28;20039;-70
2022/08/14 05:14:23;;;;;;;23.52;13.40;;;;;;;-144.47;63.50;53231.50;5070351;28;20103;-67
2022/08/14 05:16:48;;;;;;;19.55;12.43;;;;;;;-144.47;63.29;53247.38;5034884;28;20032;-68
2022/08/14 05:19:14;;;;;;;24.90;14.23;;;;;;;-144.47;63.03;53229.50;5060087;28;20071;-66
2022/08/14 05:21:40;;;;;;;18.45;13.65;;;;;;;-144.47;62.96;53201.69;5034548;28;20039;-67
2022/08/14 05:24:09;;;;;;;21.00;12.57;;;;;;;-144.47;63.00;53203.69;5051622;28;20028;-66
2022/08/14 05:26:40;;;;;;;19.67;13.30;;;;;;;-144.47;62.96;53219.56;5035629;28;20040;-67
2022/08/14 05:29:06;;;;;;;19.85;14.05;;;;;;;-144.47;62.91;53217.59;5051263;28;20028;-64
2022/08/14 05:31:32;;;;;;;20.77;13.23;;;;;;;-144.47;62.80;53237.44;5051833;28;20128;-69
2022/08/14 05:33:57;;;;;;;21.52;12.35;;;;;;;-144.47;62.68;53233.47;5069289;28;20462;-67
2022/08/14 05:36:24;;;;;;;21.08;13.85;;;;;;;-144.47;62.66;53221.56;5068995;28;20027;-65
2022/08/14 05:38:49;;;;;;;20.88;13.23;;;;;;;-144.47;62.63;53239.44;5068881;28;20032;-65
2022/08/14 05:41:17;;;;;;;18.35;12.43;;;;;;;-144.47;62.43;53215.59;5065761;28;20363;-65
2022/08/14 05:43:46;;;;;;;21.23;12.02;;;;;;;-144.47;62.22;53241.44;5051400;28;20032;-66
2022/08/14 05:46:13;;;;;;;16.48;12.32;;;;;;;-144.47;61.86;53251.34;5052569;28;20116;-65
2022/08/14 05:48:39;;;;;;;21.17;12.18;;;;;;;-144.47;61.98;53219.56;5051900;28;20067;-69
2022/08/14 05:51:05;;;;;;;18.15;13.50;;;;;;;-144.47;62.13;53199.72;5032258;28;20175;-67
2022/08/14 05:53:30;;;;;;;20.60;12.85;;;;;;;-144.47;62.12;53233.47;5063274;28;20029;-66
2022/08/14 05:55:57;;;;;;;18.90;13.75;;;;;;;-144.47;61.89;53217.59;5055891;28;20392;-67
2022/08/14 05:58:26;;;;;;;20.77;13.60;;;;;;;-144.47;61.88;53211.63;5073804;28;20039;-66
2022/08/14 06:00:51;;;;;;;20.02;13.63;;;;;;;-144.47;61.91;53207.66;5073520;28;20047;-65
2022/08/14 06:03:19;;;;;;;22.90;14.38;;;;;;;-144.47;61.74;53161.97;5055582;28;20498;-65
2022/08/14 06:05:48;;;;;;;20.13;13.70;;;;;;;-144.47;61.46;53253.34;5054627;28;20055;-65
2022/08/14 06:08:18;;;;;;;20.63;13.35;;;;;;;-144.47;61.38;53189.78;5072609;28;20409;-65
2022/08/14 06:10:44;;;;;;;24.05;13.85;;;;;;;-144.47;61.25;53191.78;5072855;28;20119;-66
2022/08/14 06:13:09;;;;;;;19.02;13.35;;;;;;;-144.47;60.86;53221.56;5073083;28;20060;-68
2022/08/14 06:15:35;;;;;;;18.15;12.73;;;;;;;-144.47;60.67;53150.06;5054522;28;20024;-66
2022/08/14 06:18:00;;;;;;;22.67;12.68;;;;;;;-144.47;60.72;53211.63;5054599;28;20028;-67
2022/08/14 06:20:26;;;;;;;21.52;13.00;;;;;;;-144.47;60.28;53237.44;5070868;28;20024;-67
2022/08/14 06:22:52;;;;;;;20.20;12.52;;;;;;;-144.47;60.29;53217.59;5048934;28;20052;-65
2022/08/14 06:25:17;;;;;;;18.27;12.07;;;;;;;-144.47;60.32;53183.81;5037446;28;20113;-67
2022/08/14 06:27:45;;;;;;;21.20;11.65;;;;;;;-144.47;60.11;53205.66;5071792;28;20150;-67
2022/08/14 06:30:14;;;;;;;18.45;11.25;;;;;;;-144.47;60.02;53245.41;5053915;28;20439;-67
2022/08/14 06:32:40;;;;;;;18.83;11.63;;;;;;;-144.47;59.55;53217.59;5071682;28;20037;-65
2022/08/14 06:35:07;;;;;;;15.95;11.60;;;;;;;-144.47;59.10;53209.66;5057681;28;20104;-68
2022/08/14 06:37:39;;;;;;;16.85;10.77;;;;;;;-144.47;58.92;53203.69;5071522;28;20033;-68
2022/08/14 06:40:06;;;;;;;16.52;10.85;;;;;;;-144.47;58.75;53225.53;5071935;28;20391;-66
2022/08/14 06:42:32;;;;;;;19.38;11.30;;;;;;;-144.47;58.63;53209.66;5053888;28;20025;-68
2022/08/14 06:44:57;;;;;;;15.35;10.57;;;;;;;-144.47;58.45;53233.47;5071890;28;20051;-65
2022/08/14 06:47:22;;;;;;;18.63;10.30;;;;;;;-144.47;58.23;53173.88;5070987;28;20025;-65
2022/08/14 06:49:48;;;;;;;17.80;9.63;;;;;;;-144.47;58.06;53173.88;5054319;28;20024;-63
2022/08/14 06:52:13;;;;;;;15.57;9.73;;;;;;;-144.47;57.86;53195.75;5071170;28;20070;-65
2022/08/14 06:54:39;;;;;;;15.90;9.13;;;;;;;-144.47;57.59;53187.78;5071403;28;20028;-66
2022/08/14 06:57:04;;;;;;;14.70;9.73;;;;;;;-144.47;57.33;53167.94;5071119;28;20425;-66
2022/08/14 06:59:30;;;;;;;13.05;8.88;;;;;;;-144.47;56.98;53217.59;5070549;28;20020;-67
2022/08/14 07:07:24;;;;;;;12.40;8.57;;;;;;;-144.47;56.36;53185.81;5072080;28;20035;-64
2022/08/14 07:09:49;;;;;;;19.50;9.70;;;;;;;-144.47;56.02;53177.88;5068414;28;20017;-64
2022/08/14 07:12:14;;;;;;;17.48;9.90;;;;;;;-144.47;55.80;53205.66;5070312;28;20017;-65
2022/08/14 07:14:40;;;;;;;13.63;8.93;;;;;;;-144.47;55.60;53163.97;5071087;28;20412;-66
2022/08/14 07:17:05;;;;;;;12.93;8.80;;;;;;;-144.47;55.51;53197.72;5065340;28;20760;-65
2022/08/14 07:19:31;;;;;;;14.27;8.48;;;;;;;-144.47;54.88;53177.88;5050701;28;20020;-65
2022/08/14 07:21:56;;;;;;;15.30;8.88;;;;;;;-144.47;54.77;53169.91;5052620;28;20095;-66
2022/08/14 07:24:21;;;;;;;12.38;8.05;;;;;;;-144.47;54.95;53169.91;5070578;28;20027;-64
2022/08/14 07:26:47;;;;;;;15.68;9.48;;;;;;;-144.47;54.87;53173.88;5065599;28;20036;-69
2022/08/14 07:29:12;;;;;;;15.38;8.93;;;;;;;-144.47;54.63;53175.88;5070376;28;20044;-67
2022/08/14 07:31:37;;;;;;;14.80;9.60;;;;;;;-144.47;54.64;53173.88;5071710;28;20452;-67
2022/08/14 07:34:03;;;;;;;18.60;8.60;;;;;;;-144.47;54.16;53199.72;5070304;28;20096;-66
2022/08/14 07:36:28;;;;;;;13.75;8.73;;;;;;;-144.47;53.93;53140.13;5067750;28;20489;-69
2022/08/14 07:38:53;;;;;;;11.80;8.90;;;;;;;-144.47;53.74;53189.78;5066540;28;20028;-69
2022/08/14 07:41:19;;;;;;;16.27;8.57;;;;;;;-144.47;53.36;53138.13;5067082;28;20066;-68
2022/08/14 07:43:44;;;;;;;16.45;9.15;;;;;;;-144.47;53.30;53161.97;5070156;28;20074;-65
2022/08/14 07:46:10;;;;;;;14.65;9.18;;;;;;;-144.47;52.91;53209.66;5070655;28;20020;-66
2022/08/14 07:48:39;;;;;;;15.40;8.38;;;;;;;-144.47;52.71;53156.00;5070816;28;20055;-67
2022/08/14 07:51:05;;;;;;;15.57;9.18;;;;;;;-144.47;52.41;53171.91;5071322;28;20083;-64
2022/08/14 07:53:32;;;;;;;11.27;8.30;;;;;;;-144.47;52.29;53187.78;5070392;28;20024;-66
2022/08/14 07:55:57;;;;;;;16.75;8.57;;;;;;;-144.47;52.08;53179.84;5069962;28;20029;-65
2022/08/14 07:58:23;;;;;;;13.25;8.90;;;;;;;-144.47;51.84;53167.94;5068829;28;20374;-69
2022/08/14 08:00:49;;;;;;;16.45;7.90;;;;;;;-144.47;51.41;53199.72;5070084;28;20008;-67
2022/08/14 08:03:16;;;;;;;11.82;8.57;;;;;;;-144.47;51.22;53163.97;5069318;28;20020;-70
2022/08/14 08:05:42;;;;;;;15.25;8.82;;;;;;;-144.47;51.25;53163.97;5069332;28;20046;-66
2022/08/14 08:08:07;;;;;;;12.85;7.88;;;;;;;-144.47;50.53;53156.00;5068978;28;20095;-66
2022/08/14 08:10:35;;;;;;;14.63;8.10;;;;;;;-144.47;50.53;53163.97;5069350;28;20043;-68
2022/08/14 08:13:15;;;;;;;14.07;7.90;;;;;;;-144.47;50.35;53122.25;5069467;28;20047;-67
2022/08/14 08:16:00;;;;;;;11.25;7.90;;;;;;;-144.47;50.51;53193.75;5064947;28;20028;-66
2022/08/14 08:18:27;;;;;;;12.98;7.45;;;;;;;-144.47;50.28;53154.03;5066275;28;20561;-67
2022/08/14 08:20:54;;;;;;;15.18;8.70;;;;;;;-144.47;50.15;53161.97;5040363;28;20107;-66
2022/08/14 08:23:21;;;;;;;18.73;7.72;;;;;;;-144.47;48.96;53169.91;5062684;28;20485;-67
2022/08/14 08:25:49;;;;;;;13.27;7.80;;;;;;;-144.47;48.71;53138.13;5069089;28;20028;-67
2022/08/14 08:28:19;;;;;;;19.27;8.43;;;;;;;-144.47;48.56;53163.97;5069026;28;20245;-68
2022/08/14 08:30:53;;;;;;;12.02;7.55;;;;;;;-144.47;48.53;53122.25;5060383;28;20025;-67
2022/08/14 08:33:20;;;;;;;13.00;8.10;;;;;;;-144.47;47.79;53124.22;5068879;28;20024;-67
2022/08/14 08:35:47;;;;;;;12.63;7.55;;;;;;;-144.47;47.91;53130.19;5069263;28;20151;-67
2022/08/14 08:38:23;;;;;;;16.95;8.07;;;;;;;-144.47;47.96;53140.13;5069253;28;20074;-67
2022/08/14 08:40:50;;;;;;;15.52;8.05;;;;;;;-144.47;47.13;53140.13;5051405;28;20351;-67
2022/08/14 08:43:31;;;;;;;13.90;8.27;;;;;;;-144.47;46.45;53106.34;5051359;28;20021;-67
2022/08/14 08:46:01;;;;;;;18.40;8.57;;;;;;;-144.47;46.62;53146.09;5068870;28;20097;-67
2022/08/14 08:48:29;;;;;;;14.07;8.90;;;;;;;-144.47;46.55;53130.19;5068843;28;20469;-67
2022/08/14 08:51:00;;;;;;;12.32;8.20;;;;;;;-144.47;47.11;53154.03;5051037;28;20674;-67
2022/08/14 08:53:33;;;;;;;14.77;8.32;;;;;;;-144.47;47.07;53150.06;5068776;28;20024;-69
2022/08/14 08:55:59;;;;;;;16.77;8.27;;;;;;;-144.47;46.58;53100.41;5069001;28;20013;-68
2022/08/14 08:58:25;;;;;;;15.40;8.13;;;;;;;-144.47;46.14;53134.16;5049509;28;20024;-68
2022/08/14 09:00:53;;;;;;;11.60;7.82;;;;;;;-144.47;45.71;53128.22;5068827;28;20048;-65
2022/08/14 09:03:23;;;;;;;11.75;8.48;;;;;;;-144.47;45.60;53122.25;5068898;28;20600;-69
2022/08/14 09:06:01;;;;;;;13.88;8.38;;;;;;;-144.47;45.65;53128.22;5068270;28;20477;-66
2022/08/14 09:08:29;;;;;;;17.70;8.27;;;;;;;-144.47;45.88;53128.22;5089193;28;20038;-68
2022/08/14 09:10:56;;;;;;;12.18;7.40;;;;;;;-144.47;45.08;53146.09;5039344;28;20025;-66
2022/08/14 09:13:25;;;;;;;20.08;7.25;;;;;;;-144.47;44.91;53112.31;5063583;28;20059;-66
2022/08/14 09:15:52;;;;;;;12.73;7.03;;;;;;;-144.47;45.02;53106.34;5068987;28;20509;-67
2022/08/14 09:18:20;;;;;;;13.57;7.55;;;;;;;-144.47;44.70;53104.38;5068852;28;20154;-67
2022/08/14 09:20:48;;;;;;;10.95;7.03;;;;;;;-144.47;44.12;53130.19;5069472;28;20385;-66
2022/08/14 09:23:14;;;;;;;11.88;6.90;;;;;;;-144.47;44.08;53104.38;5069535;28;20028;-66
2022/08/14 09:25:45;;;;;;;10.88;6.85;;;;;;;-144.47;44.12;53086.50;5069762;28;20132;-68
2022/08/14 09:28:11;;;;;;;13.73;7.80;;;;;;;-144.47;44.34;53118.28;5067598;28;20035;-67
2022/08/14 09:30:41;;;;;;;14.43;7.30;;;;;;;-144.47;44.09;53134.16;5068921;28;20087;-66
2022/08/14 09:33:33;;;;;;;18.13;7.40;;;;;;;-144.47;43.96;53138.13;5068272;28;20082;-67
2022/08/14 09:36:11;;;;;;;12.35;7.18;;;;;;;-144.47;43.91;53128.22;5065994;28;20048;-66
2022/08/14 09:38:45;;;;;;;11.05;6.68;;;;;;;-144.47;43.53;53104.38;5067845;28;20125;-69
2022/08/14 09:41:22;;;;;;;11.27;7.30;;;;;;;-144.47;43.54;53088.47;5064380;28;20020;-65
2022/08/14 09:44:01;;;;;;;13.95;7.90;;;;;;;-144.47;44.01;53154.03;5067597;28;20021;-70
2022/08/14 09:46:27;;;;;;;16.48;7.13;;;;;;;-144.47;43.81;53144.09;5067844;28;20086;-69
2022/08/14 09:49:05;;;;;;;14.20;7.05;;;;;;;-144.47;43.51;53110.31;5068203;28;20032;-69
2022/08/14 09:51:32;;;;;;;12.70;7.13;;;;;;;-144.47;42.99;53100.41;5065936;28;20219;-67
2022/08/14 09:54:10;;;;;;;15.70;6.65;;;;;;;-144.47;42.15;53096.41;5062888;28;20089;-69
2022/08/14 09:56:50;;;;;;;13.88;6.88;;;;;;;-144.47;42.14;53122.25;5066395;28;20099;-69
2022/08/14 09:59:21;;;;;;;15.10;7.00;;;;;;;-144.47;42.59;53090.47;5068112;28;20055;-68
2022/08/14 10:01:47;;;;;;;11.15;7.43;;;;;;;-144.47;42.37;53108.34;5068013;28;20039;-67
2022/08/14 10:04:24;;;;;;;16.08;6.63;;;;;;;-144.47;42.05;53098.41;5067848;28;20025;-67
2022/08/14 10:06:50;;;;;;;16.47;6.60;;;;;;;-144.47;41.26;53110.31;5068036;28;20017;-68
2022/08/14 10:09:17;;;;;;;11.55;6.00;;;;;;;-144.47;40.48;53100.41;5068049;28;20061;-68
2022/08/14 10:11:54;;;;;;;10.32;6.32;;;;;;;-144.47;39.83;53100.41;5068702;28;20016;-69
2022/08/14 10:14:23;;;;;;;11.25;5.88;;;;;;;-144.47;39.13;53094.44;5064871;28;20044;-67
2022/08/14 10:16:53;;;;;;;13.75;6.43;;;;;;;-144.47;39.04;53110.31;5068628;28;20020;-69
2022/08/14 10:19:21;;;;;;;18.63;6.88;;;;;;;-144.47;38.41;53062.66;5068531;28;20060;-66
2022/08/14 10:21:56;;;;;;;10.43;5.90;;;;;;;-144.47;39.14;53072.59;5069134;28;20039;-67
2022/08/14 10:24:24;;;;;;;11.38;5.82;;;;;;;-144.47;38.56;53040.81;5059067;28;20281;-69
2022/08/14 10:26:58;;;;;;;10.03;6.37;;;;;;;-144.47;38.15;53062.66;5039295;28;20346;-66
2022/08/14 10:29:38;;;;;;;9.38;5.80;;;;;;;-144.47;38.72;53090.47;5065648;28;20374;-67
2022/08/14 10:32:05;;;;;;;9.15;5.55;;;;;;;-144.47;38.88;53102.38;5065829;28;20020;-63
2022/08/14 10:34:33;;;;;;;11.00;5.78;;;;;;;-144.47;38.85;53122.25;5067929;28;20020;-64
2022/08/14 10:37:08;;;;;;;9.55;5.90;;;;;;;-144.47;38.74;53056.69;5067401;28;20445;-64
2022/08/14 10:39:37;;;;;;;12.90;6.10;;;;;;;-144.47;38.76;53086.50;5069054;28;20059;-67
2022/08/14 10:42:10;;;;;;;12.18;6.38;;;;;;;-144.47;38.90;53078.53;5071285;28;20111;-63
2022/08/14 10:44:44;;;;;;;10.00;5.90;;;;;;;-144.47;38.64;53082.53;5071703;28;20406;-68
2022/08/14 10:47:11;;;;;;;11.43;5.97;;;;;;;-144.47;38.39;53048.75;5052733;28;20043;-67
2022/08/14 10:49:42;;;;;;;11.02;5.55;;;;;;;-144.47;38.39;53054.72;5053186;28;20469;-66
2022/08/14 10:52:18;;;;;;;11.65;6.05;;;;;;;-144.47;38.31;53090.47;5066460;28;20199;-65
2022/08/14 10:54:45;;;;;;;12.07;5.40;;;;;;;-144.47;38.21;53118.28;5059691;28;20020;-66
2022/08/14 10:57:14;;;;;;;18.83;7.07;;;;;;;-144.47;38.10;53074.56;5070827;28;20024;-67
2022/08/14 10:59:41;;;;;;;16.00;6.05;;;;;;;-144.47;38.15;53108.34;5052770;28;20035;-68
2022/08/14 11:02:36;;;;;;;14.80;6.50;;;;;;;-144.47;37.44;53058.69;5070011;28;20024;-69
2022/08/14 11:05:11;;;;;;;15.40;6.15;;;;;;;-144.47;37.48;53080.53;5042501;28;20033;-66
2022/08/14 11:07:39;;;;;;;8.73;5.50;;;;;;;-144.47;37.08;53094.44;5070627;28;20020;-68
2022/08/14 11:10:14;;;;;;;14.98;6.25;;;;;;;-144.47;37.42;53078.53;5052923;28;20016;-70
2022/08/14 11:12:47;;;;;;;8.85;6.15;;;;;;;-144.47;37.47;53078.53;5066909;28;20025;-69
2022/08/14 11:15:21;;;;;;;14.52;5.93;;;;;;;-144.47;37.34;53030.88;5069455;28;20075;-70
2022/08/14 11:17:48;;;;;;;9.23;5.85;;;;;;;-144.47;36.71;53130.19;5067006;28;20027;-71
2022/08/14 11:20:16;;;;;;;10.37;5.50;;;;;;;-144.47;36.98;53038.81;5071843;28;20028;-68
2022/08/14 11:22:42;;;;;;;9.00;6.15;;;;;;;-144.47;36.80;53100.41;5070522;28;20025;-68
2022/08/14 11:25:15;;;;;;;10.88;5.68;;;;;;;-144.47;36.37;53092.44;5071067;28;20101;-67
2022/08/14 11:27:43;;;;;;;9.25;5.68;;;;;;;-144.47;36.13;53094.44;5070659;28;20028;-67
2022/08/14 11:30:14;;;;;;;9.95;5.75;;;;;;;-144.47;35.56;53062.66;5052951;28;20021;-69